createdAt,value
2024-01-05T00:02:19.182Z,5.82
2024-01-05T00:04:47.976Z,5.86
2024-01-05T00:07:15.356Z,5.88
2024-01-05T00:09:42.682Z,5.91
2024-01-05T00:12:10.013Z,5.85
2024-01-05T00:14:37.944Z,5.79
2024-01-05T00:17:05.265Z,5.85
2024-01-05T00:19:32.912Z,5.88
2024-01-05T00:22:01.820Z,5.81
2024-01-05T00:24:29.117Z,5.73
2024-01-05T00:26:56.454Z,5.70
2024-01-05T00:29:23.738Z,5.74
2024-01-05T00:31:51.012Z,5.66
2024-01-05T00:34:18.328Z,5.62
2024-01-05T00:36:45.909Z,5.59
2024-01-05T00:39:14.800Z,5.56
2024-01-05T00:41:42.117Z,5.58
2024-01-05T00:44:09.407Z,5.57
2024-01-05T00:46:37.754Z,5.60
2024-01-05T00:49:05.162Z,5.57
2024-01-05T00:51:32.613Z,5.50
2024-01-05T00:53:59.931Z,5.43
2024-01-05T00:56:28.588Z,5.39
2024-01-05T00:58:55.860Z,5.39
2024-01-05T01:01:23.254Z,5.38
2024-01-05T01:03:50.820Z,5.34
2024-01-05T01:06:18.253Z,5.38
2024-01-05T01:08:45.550Z,5.37
2024-01-05T01:11:16.348Z,5.33
2024-01-05T01:13:45.787Z,5.30
2024-01-05T01:16:13.085Z,5.26
2024-01-05T01:18:40.782Z,5.26
2024-01-05T01:21:08.248Z,5.22
2024-01-05T01:23:35.661Z,5.24
2024-01-05T01:26:03.025Z,5.20
2024-01-05T01:28:31.577Z,5.24
2024-01-05T01:31:00.625Z,5.27
2024-01-05T01:33:28.117Z,5.26
2024-01-05T01:35:55.527Z,5.27
2024-01-05T01:38:22.792Z,5.30
2024-01-05T01:40:50.190Z,5.36
2024-01-05T01:43:19.080Z,5.37
2024-01-05T01:45:46.519Z,5.40
2024-01-05T01:48:16.116Z,5.41
2024-01-05T01:50:43.520Z,5.41
2024-01-05T01:53:14.343Z,5.35
2024-01-05T01:55:42.244Z,5.31
2024-01-05T01:58:10.375Z,5.34
2024-01-05T02:00:38.825Z,5.37
2024-01-05T02:03:06.477Z,5.39
2024-01-05T02:05:35.605Z,5.39
2024-01-05T02:08:03.237Z,5.46
2024-01-05T02:10:30.693Z,5.46
2024-01-05T02:12:58.536Z,5.46
2024-01-05T02:15:25.826Z,5.43
2024-01-05T02:17:53.291Z,5.42
2024-01-05T02:20:21.923Z,5.37
2024-01-05T02:22:57.116Z,5.34
2024-01-05T02:25:25.783Z,5.21
2024-01-05T02:27:53.030Z,5.11
2024-01-05T02:30:20.611Z,5.12
2024-01-05T02:32:48.053Z,5.02
2024-01-05T02:35:15.393Z,5.06
2024-01-05T02:37:42.991Z,5.09
2024-01-05T02:40:12.040Z,5.08
2024-01-05T02:42:40.886Z,5.10
2024-01-05T02:45:08.838Z,5.05
2024-01-05T02:47:36.168Z,5.01
2024-01-05T02:50:03.685Z,4.92
2024-01-05T02:52:30.981Z,4.95
2024-01-05T02:54:58.342Z,4.96
2024-01-05T02:57:25.779Z,4.93
2024-01-05T02:59:54.546Z,5.02
2024-01-05T03:02:21.846Z,5.06
2024-01-05T03:04:49.173Z,5.07
2024-01-05T03:07:16.438Z,5.10
2024-01-05T03:09:43.695Z,5.10
2024-01-05T03:12:11.025Z,5.16
2024-01-05T03:14:38.344Z,5.20
2024-01-05T03:17:06.996Z,5.27
2024-01-05T03:19:34.373Z,5.28
2024-01-05T03:22:01.849Z,5.32
2024-01-05T03:24:29.256Z,5.34
2024-01-05T03:26:56.576Z,5.36
2024-01-05T03:29:23.932Z,5.37
2024-01-05T03:31:51.220Z,5.42
2024-01-05T03:34:19.969Z,5.42
2024-01-05T03:36:47.565Z,5.39
2024-01-05T03:39:15.192Z,5.42
2024-01-05T03:41:42.444Z,5.43
2024-01-05T03:44:09.693Z,5.37
2024-01-05T03:46:36.983Z,5.36
2024-01-05T03:49:04.447Z,5.40
2024-01-05T03:51:33.274Z,5.45
2024-01-05T03:54:00.565Z,5.47
2024-01-05T03:56:27.865Z,5.48
2024-01-05T03:58:55.156Z,5.49
2024-01-05T04:01:22.464Z,5.44
2024-01-05T04:03:49.899Z,5.50
2024-01-05T04:06:20.498Z,5.50
2024-01-05T04:08:49.201Z,5.50
2024-01-05T04:11:18.991Z,5.53
2024-01-05T04:13:46.269Z,5.54
2024-01-05T04:16:13.657Z,5.57
2024-01-05T04:18:41.116Z,5.58
2024-01-05T04:21:08.465Z,5.56
2024-01-05T04:23:35.748Z,5.55
2024-01-05T04:26:04.784Z,5.55
2024-01-05T04:28:32.072Z,5.56
2024-01-05T04:30:59.533Z,5.57
2024-01-05T04:33:26.981Z,5.57
2024-01-05T04:35:54.348Z,5.55
2024-01-05T04:38:21.613Z,5.58
2024-01-05T04:40:48.971Z,5.58
2024-01-05T04:43:17.644Z,5.57
2024-01-05T04:45:44.930Z,5.59
2024-01-05T04:48:12.454Z,5.57
2024-01-05T04:50:39.812Z,5.54
2024-01-05T04:53:07.077Z,5.51
2024-01-05T04:55:34.418Z,5.52
2024-01-05T04:58:01.706Z,5.52
2024-01-05T05:00:30.443Z,5.57
2024-01-05T05:02:57.901Z,5.55
2024-01-05T05:05:25.294Z,5.56
2024-01-05T05:07:53.137Z,5.58
2024-01-05T05:10:20.430Z,5.60
2024-01-05T05:12:47.711Z,5.60
2024-01-05T05:15:15.326Z,5.60
2024-01-05T05:17:44.064Z,5.60
2024-01-05T05:20:12.185Z,5.59
2024-01-05T05:22:39.776Z,5.60
2024-01-05T05:25:08.056Z,5.56
2024-01-05T05:27:35.644Z,5.58
2024-01-05T05:30:06.201Z,5.58
2024-01-05T05:32:33.638Z,5.59
2024-01-05T05:35:02.444Z,5.58
2024-01-05T05:37:29.750Z,5.57
2024-01-05T05:39:57.088Z,5.59
2024-01-05T05:42:24.390Z,5.59
2024-01-05T05:44:51.726Z,5.64
2024-01-05T05:47:18.979Z,5.68
2024-01-05T05:49:46.446Z,5.63
2024-01-05T05:52:15.316Z,5.68
2024-01-05T05:54:42.624Z,5.71
2024-01-05T05:57:11.401Z,5.73
2024-01-05T05:59:38.927Z,5.79
2024-01-05T06:02:06.339Z,5.80
2024-01-05T06:04:33.676Z,5.83
2024-01-05T06:07:01.101Z,5.86
2024-01-05T06:09:29.898Z,5.84
2024-01-05T06:11:57.264Z,5.88
2024-01-05T06:14:24.526Z,5.78
2024-01-05T06:16:51.857Z,5.82
2024-01-05T06:19:19.220Z,5.79
2024-01-05T06:21:47.031Z,5.82
2024-01-05T06:24:14.642Z,5.80
2024-01-05T06:26:43.334Z,5.80
2024-01-05T06:29:10.687Z,5.78
2024-01-05T06:31:37.976Z,5.78
2024-01-05T06:34:05.414Z,5.79
2024-01-05T06:36:32.757Z,5.82
2024-01-05T06:39:00.122Z,5.84
2024-01-05T06:41:27.422Z,5.90
2024-01-05T06:43:56.064Z,5.85
2024-01-05T06:46:23.444Z,5.82
2024-01-05T06:48:50.877Z,5.89
2024-01-05T06:51:18.321Z,5.85
2024-01-05T06:53:45.609Z,5.82
2024-01-05T06:56:12.916Z,5.82
2024-01-05T06:58:40.200Z,5.81
2024-01-05T07:01:08.865Z,5.81
2024-01-05T07:03:36.280Z,5.80
2024-01-05T07:06:03.962Z,5.83
2024-01-05T07:08:31.243Z,5.84
2024-01-05T07:10:58.527Z,5.84
2024-01-05T07:13:25.811Z,5.88
2024-01-05T07:15:53.097Z,5.82
2024-01-05T07:18:21.972Z,5.86
2024-01-05T07:20:49.325Z,5.87
2024-01-05T07:23:16.641Z,5.90
2024-01-05T07:25:43.875Z,5.92
2024-01-05T07:28:11.128Z,5.94
2024-01-05T07:30:38.494Z,5.97
2024-01-05T07:33:05.917Z,5.97
2024-01-05T07:35:34.625Z,6.02
2024-01-05T07:38:01.906Z,6.03
2024-01-05T07:40:29.233Z,6.06
2024-01-05T07:42:56.498Z,6.09
2024-01-05T07:45:23.758Z,6.12
2024-01-05T07:47:51.083Z,6.09
2024-01-05T07:50:18.394Z,6.06
2024-01-05T07:52:47.092Z,6.07
2024-01-05T07:55:14.399Z,6.05
2024-01-05T07:57:42.723Z,6.03
2024-01-05T08:00:12.318Z,6.00
2024-01-05T08:02:39.597Z,6.01
2024-01-05T08:05:07.860Z,6.01
2024-01-05T08:07:35.157Z,6.02
2024-01-05T08:10:04.439Z,6.04
2024-01-05T08:12:31.810Z,6.04
2024-01-05T08:14:59.619Z,5.95
2024-01-05T08:17:26.962Z,6.02
2024-01-05T08:19:54.517Z,6.02
2024-01-05T08:22:21.866Z,6.05
2024-01-05T08:24:49.191Z,6.14
2024-01-05T08:27:18.046Z,6.19
2024-01-05T08:29:45.325Z,6.21
2024-01-05T08:32:12.677Z,6.23
2024-01-05T08:34:39.945Z,6.32
2024-01-05T08:37:07.261Z,6.37
2024-01-05T08:39:34.590Z,6.44
2024-01-05T08:42:01.979Z,6.43
2024-01-05T08:44:30.629Z,6.46
2024-01-05T08:46:57.892Z,6.52
2024-01-05T08:49:25.410Z,6.52
2024-01-05T08:51:52.844Z,6.57
2024-01-05T08:54:20.160Z,6.57
2024-01-05T08:56:47.468Z,6.60
2024-01-05T08:59:14.784Z,6.62
2024-01-05T09:01:43.451Z,6.67
2024-01-05T09:04:10.892Z,6.73
2024-01-05T09:06:38.772Z,6.75
2024-01-05T09:09:06.109Z,6.75
2024-01-05T09:11:33.370Z,6.76
2024-01-05T09:14:00.638Z,6.76
2024-01-05T09:16:27.943Z,6.69
2024-01-05T09:18:56.703Z,6.69
2024-01-05T09:21:24.558Z,6.71
2024-01-05T09:23:51.861Z,6.70
2024-01-05T09:26:19.215Z,6.69
2024-01-05T09:28:46.492Z,6.67
2024-01-05T09:31:14.129Z,6.68
2024-01-05T09:33:41.571Z,6.71
2024-01-05T09:36:10.358Z,6.72
2024-01-05T09:38:37.633Z,6.81
2024-01-05T09:41:05.109Z,6.88
2024-01-05T09:43:32.386Z,6.98
2024-01-05T09:45:59.947Z,7.11
2024-01-05T09:48:33.919Z,7.25
2024-01-05T09:51:08.235Z,7.35
2024-01-05T09:53:39.541Z,7.50
2024-01-05T09:56:08.658Z,7.60
2024-01-05T09:58:36.515Z,7.74
2024-01-05T10:01:09.014Z,7.76
2024-01-05T10:03:37.048Z,7.80
2024-01-05T10:06:05.144Z,7.86
2024-01-05T10:08:32.521Z,7.84
2024-01-05T10:11:01.174Z,7.84
2024-01-05T10:13:28.558Z,7.92
2024-01-05T10:15:56.640Z,8.02
2024-01-05T10:18:26.101Z,8.09
2024-01-05T10:20:53.958Z,8.12
2024-01-05T10:23:21.372Z,8.20
2024-01-05T10:25:48.814Z,8.23
2024-01-05T10:28:27.310Z,8.29
2024-01-05T10:31:10.845Z,8.30
2024-01-05T10:33:48.491Z,8.37
2024-01-05T10:36:19.232Z,8.36
2024-01-05T10:38:47.539Z,8.40
2024-01-05T10:41:16.043Z,8.45
2024-01-05T10:43:45.217Z,8.48
2024-01-05T10:46:12.981Z,8.44
2024-01-05T10:48:41.270Z,8.46
2024-01-05T10:51:08.743Z,8.50
2024-01-05T10:53:38.626Z,8.41
2024-01-05T10:56:07.749Z,8.44
2024-01-05T10:58:35.024Z,8.53
2024-01-05T11:01:04.031Z,8.50
2024-01-05T11:03:37.616Z,8.43
2024-01-05T11:06:06.464Z,8.51
2024-01-05T11:08:47.800Z,8.52
2024-01-05T11:11:28.852Z,8.50
2024-01-05T11:14:10.903Z,8.64
2024-01-05T11:17:13.529Z,8.69
2024-01-05T11:19:53.800Z,8.75
2024-01-05T11:22:28.741Z,8.80
2024-01-05T11:24:57.404Z,8.76
2024-01-05T11:27:28.877Z,8.74
2024-01-05T11:29:56.474Z,8.78
2024-01-05T11:32:36.297Z,8.83
2024-01-05T11:35:04.537Z,8.91
2024-01-05T11:37:32.641Z,8.97
2024-01-05T11:40:00.485Z,9.05
2024-01-05T11:42:29.184Z,9.17
2024-01-05T11:44:57.215Z,9.17
2024-01-05T11:50:32.940Z,9.40
2024-01-05T11:53:10.754Z,9.44
2024-01-05T11:55:38.252Z,9.58
2024-01-05T11:58:05.524Z,9.61
2024-01-05T12:00:32.936Z,9.73
2024-01-05T12:03:04.223Z,9.76
2024-01-05T12:05:33.026Z,9.79
2024-01-05T12:08:00.807Z,9.77
2024-01-05T12:10:29.174Z,9.81
2024-01-05T12:12:56.890Z,9.97
2024-01-05T12:15:24.774Z,10.06
2024-01-05T12:18:02.633Z,10.01
2024-01-05T12:20:30.171Z,9.88
2024-01-05T12:22:59.032Z,9.95
2024-01-05T12:25:26.348Z,9.98
2024-01-05T12:27:54.142Z,9.93
2024-01-05T12:30:22.249Z,9.90
2024-01-05T12:32:49.801Z,9.81
2024-01-05T12:35:17.283Z,9.94
2024-01-05T12:37:51.580Z,9.88
2024-01-05T12:40:23.321Z,9.93
2024-01-05T12:42:50.960Z,9.91
2024-01-05T12:45:18.598Z,9.91
2024-01-05T12:47:46.186Z,9.87
2024-01-05T12:50:23.722Z,9.79
2024-01-05T12:52:51.430Z,9.79
2024-01-05T12:55:30.731Z,9.73
2024-01-05T12:58:01.745Z,9.78
2024-01-05T13:00:29.469Z,9.69
2024-01-05T13:02:56.775Z,9.77
2024-01-05T13:05:28.358Z,9.76
2024-01-05T13:07:55.929Z,9.85
2024-01-05T13:10:24.025Z,9.78
2024-01-05T13:12:52.774Z,9.83
2024-01-05T13:15:20.210Z,9.83
2024-01-05T13:17:48.986Z,9.74
2024-01-05T13:20:17.169Z,9.78
2024-01-05T13:22:44.475Z,9.84
2024-01-05T13:25:12.076Z,9.75
2024-01-05T13:27:39.401Z,9.78
2024-01-05T13:30:11.896Z,9.74
2024-01-05T13:32:42.286Z,9.61
2024-01-05T13:35:09.966Z,9.45
2024-01-05T13:37:37.355Z,9.58
2024-01-05T13:40:05.605Z,9.48
2024-01-05T13:42:33.250Z,9.55
2024-01-05T13:45:01.159Z,9.57
2024-01-05T13:47:29.854Z,9.50
2024-01-05T13:49:57.185Z,9.57
2024-01-05T13:52:24.449Z,9.50
2024-01-05T13:54:51.844Z,9.47
2024-01-05T13:57:19.167Z,9.46
2024-01-05T13:59:46.547Z,9.39
2024-01-05T14:02:13.946Z,9.28
2024-01-05T14:04:42.620Z,9.25
2024-01-05T14:07:09.970Z,9.16
2024-01-05T14:09:37.264Z,9.14
2024-01-05T14:12:04.836Z,9.20
2024-01-05T14:14:32.144Z,9.20
2024-01-05T14:16:59.399Z,9.17
2024-01-05T14:19:27.080Z,9.17
2024-01-05T14:21:57.062Z,9.17
2024-01-05T14:24:24.487Z,9.06
2024-01-05T14:26:51.981Z,9.06
2024-01-05T14:29:19.350Z,9.09
2024-01-05T14:31:46.646Z,9.05
2024-01-05T14:34:14.085Z,8.99
2024-01-05T14:36:41.448Z,8.92
2024-01-05T14:39:10.182Z,8.83
2024-01-05T14:41:37.652Z,8.82
2024-01-05T14:44:05.100Z,8.81
2024-01-05T14:46:32.395Z,8.70
2024-01-05T14:48:59.815Z,8.63
2024-01-05T14:51:27.209Z,8.49
2024-01-05T14:53:54.545Z,8.49
2024-01-05T14:56:23.238Z,8.46
2024-01-05T14:58:51.699Z,8.44
2024-01-05T15:01:19.382Z,8.24
2024-01-05T15:03:46.769Z,8.19
2024-01-05T15:06:14.921Z,8.06
2024-01-05T15:08:42.212Z,7.85
2024-01-05T15:11:17.891Z,7.80
2024-01-05T15:13:47.049Z,7.65
2024-01-05T15:16:14.481Z,7.52
2024-01-05T15:18:41.835Z,7.40
2024-01-05T15:21:09.370Z,7.34
2024-01-05T15:23:37.153Z,7.19
2024-01-05T15:26:04.811Z,7.15
2024-01-05T15:28:32.090Z,7.09
2024-01-05T15:31:00.833Z,6.96
2024-01-05T15:33:28.282Z,6.86
2024-01-05T15:35:55.679Z,6.77
2024-01-05T15:38:22.948Z,6.69
2024-01-05T15:40:50.292Z,6.55
2024-01-05T15:43:17.680Z,6.44
2024-01-05T15:45:45.279Z,6.41
2024-01-05T15:48:14.120Z,6.40
2024-01-05T15:50:41.513Z,6.33
2024-01-05T15:53:08.794Z,6.26
2024-01-05T15:55:40.641Z,6.26
2024-01-05T15:58:08.428Z,6.21
2024-01-05T16:00:35.791Z,6.22
2024-01-05T16:03:03.588Z,6.22
2024-01-05T16:05:32.338Z,6.22
2024-01-05T16:07:59.613Z,6.23
2024-01-05T16:10:26.930Z,6.25
2024-01-05T16:12:54.192Z,6.22
2024-01-05T16:15:21.494Z,6.26
2024-01-05T16:17:48.868Z,6.23
2024-01-05T16:20:16.229Z,6.20
2024-01-05T16:22:44.828Z,6.13
2024-01-05T16:25:12.089Z,6.05
2024-01-05T16:27:39.395Z,6.01
2024-01-05T16:30:08.074Z,5.97
2024-01-05T16:32:35.718Z,5.92
2024-01-05T16:35:03.158Z,5.90
2024-01-05T16:37:30.463Z,5.81
2024-01-05T16:39:59.144Z,5.79
2024-01-05T16:42:26.667Z,5.71
2024-01-05T16:44:53.952Z,5.70
2024-01-05T16:47:21.223Z,5.67
2024-01-05T16:49:48.612Z,5.56
2024-01-05T16:52:15.930Z,5.51
2024-01-05T16:54:43.238Z,5.42
2024-01-05T16:57:12.012Z,5.37
2024-01-05T16:59:39.297Z,5.33
2024-01-05T17:02:06.572Z,5.23
2024-01-05T17:04:34.107Z,5.16
2024-01-05T17:07:01.526Z,5.07
2024-01-05T17:09:28.979Z,4.92
2024-01-05T17:11:58.335Z,4.85
2024-01-05T17:14:27.241Z,4.71
2024-01-05T17:16:54.506Z,4.59
2024-01-05T17:19:21.859Z,4.54
2024-01-05T17:21:49.274Z,4.40
2024-01-05T17:24:16.638Z,4.31
2024-01-05T17:26:43.969Z,4.25
2024-01-05T17:29:11.290Z,4.19
2024-01-05T17:31:39.997Z,4.11
2024-01-05T17:34:07.418Z,4.10
2024-01-05T17:36:37.302Z,4.03
2024-01-05T17:39:04.684Z,4.08
2024-01-05T17:41:31.959Z,4.07
2024-01-05T17:43:59.268Z,4.11
2024-01-05T17:46:26.965Z,4.03
2024-01-05T17:48:55.782Z,4.00
2024-01-05T17:51:23.189Z,3.99
2024-01-05T17:53:50.504Z,3.93
2024-01-05T17:56:21.661Z,3.89
2024-01-05T17:58:48.973Z,3.81
2024-01-05T18:01:16.349Z,3.78
2024-01-05T18:03:44.223Z,3.76
2024-01-05T18:06:13.098Z,3.71
2024-01-05T18:08:40.481Z,3.64
2024-01-05T18:11:07.794Z,3.62
2024-01-05T18:13:35.075Z,3.58
2024-01-05T18:16:05.017Z,3.53
2024-01-05T18:18:34.063Z,3.46
2024-01-05T18:21:02.730Z,3.42
2024-01-05T18:23:31.419Z,3.43
2024-01-05T18:25:58.741Z,3.35
2024-01-05T18:28:26.032Z,3.29
2024-01-05T18:30:53.398Z,3.27
2024-01-05T18:33:20.841Z,3.19
2024-01-05T18:35:48.225Z,3.17
2024-01-05T18:38:15.596Z,3.13
2024-01-05T18:40:44.583Z,3.06
2024-01-05T18:43:12.581Z,3.01
2024-01-05T18:45:39.921Z,2.96
2024-01-05T18:48:08.227Z,2.93
2024-01-05T18:50:38.430Z,2.87
2024-01-05T18:53:05.710Z,2.92
2024-01-05T18:55:33.047Z,2.85
2024-01-05T18:58:01.704Z,2.84
2024-01-05T19:00:29.002Z,2.79
2024-01-05T19:02:56.478Z,2.78
2024-01-05T19:05:23.935Z,2.76
2024-01-05T19:07:51.244Z,2.76
2024-01-05T19:10:18.523Z,2.77
2024-01-05T19:12:45.816Z,2.76
2024-01-05T19:15:14.593Z,2.68
2024-01-05T19:17:41.961Z,2.67
2024-01-05T19:20:10.102Z,2.69
2024-01-05T19:22:37.431Z,2.65
2024-01-05T19:25:05.337Z,2.75
2024-01-05T19:27:32.665Z,2.73
2024-01-05T19:29:59.960Z,2.80
2024-01-05T19:32:28.694Z,2.77
2024-01-05T19:34:56.058Z,2.85
2024-01-05T19:37:23.591Z,2.86
2024-01-05T19:39:51.088Z,2.85
2024-01-05T19:42:18.434Z,2.89
2024-01-05T19:44:45.743Z,2.86
2024-01-05T19:47:13.039Z,2.86
2024-01-05T19:49:41.905Z,2.83
2024-01-05T19:52:09.801Z,2.80
2024-01-05T19:54:37.226Z,2.77
2024-01-05T19:57:05.051Z,2.79
2024-01-05T19:59:32.511Z,2.78
2024-01-05T20:01:59.806Z,2.77
2024-01-05T20:06:55.903Z,2.69
2024-01-05T20:09:23.275Z,2.66
2024-01-05T20:11:50.838Z,2.63
2024-01-05T20:14:18.321Z,2.57
2024-01-05T20:16:45.611Z,2.56
2024-01-05T20:19:13.125Z,2.54
2024-01-05T20:21:40.549Z,2.50
2024-01-05T20:24:09.344Z,2.49
2024-01-05T20:26:36.617Z,2.46
2024-01-05T20:29:04.477Z,2.45
2024-01-05T20:31:31.846Z,2.37
2024-01-05T20:33:59.309Z,2.40
2024-01-05T20:36:26.668Z,2.40
2024-01-05T20:38:54.978Z,2.41
2024-01-05T20:41:24.709Z,2.41
2024-01-05T20:43:51.961Z,2.37
2024-01-05T20:46:19.255Z,2.38
2024-01-05T20:48:46.704Z,2.39
2024-01-05T20:51:17.984Z,2.39
2024-01-05T20:53:45.319Z,2.36
2024-01-05T20:56:12.666Z,2.32
2024-01-05T20:58:43.734Z,2.35
2024-01-05T21:01:12.654Z,2.37
2024-01-05T21:03:40.103Z,2.35
2024-01-05T21:06:07.615Z,2.34
2024-01-05T21:08:34.945Z,2.39
2024-01-05T21:11:02.279Z,2.39
2024-01-05T21:13:29.566Z,2.37
2024-01-05T21:15:58.262Z,2.39
2024-01-05T21:18:25.775Z,2.39
2024-01-05T21:20:53.128Z,2.39
2024-01-05T21:23:20.460Z,2.38
2024-01-05T21:25:47.729Z,2.38
2024-01-05T21:28:15.016Z,2.42
2024-01-05T21:30:42.427Z,2.44
2024-01-05T21:33:11.246Z,2.51
2024-01-05T21:35:38.733Z,2.56
2024-01-05T21:38:06.003Z,2.68
2024-01-05T21:40:33.278Z,2.76
2024-01-05T21:43:00.593Z,2.86
2024-01-05T21:45:28.031Z,2.93
2024-01-05T21:47:55.417Z,3.02
2024-01-05T21:50:24.048Z,3.12
2024-01-05T21:52:51.350Z,3.21
2024-01-05T21:55:18.638Z,3.29
2024-01-05T21:57:45.943Z,3.30
2024-01-05T22:00:14.174Z,3.26
2024-01-05T22:02:41.512Z,3.28
2024-01-05T22:05:09.023Z,3.27
2024-01-05T22:07:37.661Z,3.27
2024-01-05T22:10:05.775Z,3.19
2024-01-05T22:12:33.259Z,3.18
2024-01-05T22:15:00.719Z,3.14
2024-01-05T22:17:28.117Z,3.17
2024-01-05T22:19:55.476Z,3.21
2024-01-05T22:22:22.785Z,3.22
2024-01-05T22:24:51.477Z,3.28
2024-01-05T22:27:18.961Z,3.32
2024-01-05T22:29:46.281Z,3.36
2024-01-05T22:32:13.528Z,3.42
2024-01-05T22:34:40.962Z,3.45
2024-01-05T22:37:08.386Z,3.50
2024-01-05T22:39:35.717Z,3.51
2024-01-05T22:42:04.846Z,3.54
2024-01-05T22:44:32.125Z,3.58
2024-01-05T22:46:59.398Z,3.64
2024-01-05T22:49:26.775Z,3.71
2024-01-05T22:51:54.140Z,3.75
2024-01-05T22:54:21.444Z,3.79
2024-01-05T22:56:48.757Z,3.83
2024-01-05T22:59:17.419Z,3.83
2024-01-05T23:01:44.781Z,3.85
2024-01-05T23:04:12.119Z,3.80
2024-01-05T23:06:39.563Z,3.83
2024-01-05T23:09:06.970Z,3.82
2024-01-05T23:11:34.269Z,3.81
2024-01-05T23:14:01.522Z,3.82
2024-01-05T23:16:30.170Z,3.83
2024-01-05T23:18:57.520Z,3.80
2024-01-05T23:21:24.901Z,3.79
2024-01-05T23:23:52.220Z,3.76
2024-01-05T23:26:19.587Z,3.70
2024-01-05T23:28:46.948Z,3.60
2024-01-05T23:31:14.366Z,3.55
2024-01-05T23:36:14.906Z,3.41
2024-01-05T23:38:42.208Z,3.42
2024-01-05T23:41:09.597Z,3.36
2024-01-05T23:43:36.894Z,3.36
2024-01-05T23:46:04.401Z,3.40
2024-01-05T23:48:31.913Z,3.45
2024-01-05T23:51:00.774Z,3.46
2024-01-05T23:53:28.075Z,3.51
2024-01-05T23:55:55.398Z,3.56
2024-01-05T23:58:22.639Z,3.58
